Time;durP1;ratioP1;P1;durP2;ratioP2;P2;SDS_P1;SDS_P2;PMS_P1;PMS_P2;Temp;Humidity;BMP_temperature;BMP_pressure;BME280_temperature;BME280_humidity;BME280_pressure;Samples;Min_cycle;Max_cycle;Signal;HPM_P1;HPM_P2
2022/06/14 00:00:53;;;;;;;15.82;7.00;;;;;;;10.30;77.01;102364.09;4950372;28;20033;-78
2022/06/14 00:02:23;;;;;;;17.83;6.95;;;;;;;10.28;76.80;102374.69;4952020;28;20050;-78
2022/06/14 00:04:50;;;;;;;16.15;7.38;;;;;;;10.22;77.00;102371.50;4959345;28;20058;-77
2022/06/14 00:07:15;;;;;;;20.42;7.95;;;;;;;10.18;77.23;102372.53;4953589;28;20038;-78
2022/06/14 00:09:40;;;;;;;18.95;8.32;;;;;;;10.13;77.41;102374.56;4951191;28;20059;-78
2022/06/14 00:12:06;;;;;;;19.80;8.90;;;;;;;10.09;77.74;102373.84;4951921;28;20081;-78
2022/06/14 00:14:31;;;;;;;20.30;8.30;;;;;;;10.09;77.97;102367.72;4942232;28;20123;-78
2022/06/14 00:16:57;;;;;;;19.33;8.48;;;;;;;10.04;78.16;102365.31;4941842;29;20026;-78
2022/06/14 00:19:22;;;;;;;15.40;8.13;;;;;;;10.02;78.01;102361.91;4969587;28;20031;-78
2022/06/14 00:21:48;;;;;;;20.58;7.95;;;;;;;10.01;78.52;102366.31;4968527;28;20306;-78
2022/06/14 00:24:13;;;;;;;17.42;8.45;;;;;;;9.95;78.60;102360.47;4971886;28;20058;-78
2022/06/14 00:26:38;;;;;;;20.70;8.68;;;;;;;9.92;78.74;102365.88;4971129;28;20022;-78
2022/06/14 00:29:04;;;;;;;17.70;8.25;;;;;;;9.90;78.66;102367.72;4971253;28;20027;-78
2022/06/14 00:31:30;;;;;;;18.27;8.55;;;;;;;9.86;78.66;102361.75;4939259;28;20659;-78
2022/06/14 00:33:56;;;;;;;17.80;8.68;;;;;;;9.85;79.05;102365.31;4933131;29;20066;-78
2022/06/14 00:36:28;;;;;;;23.67;9.52;;;;;;;9.81;78.88;102363.75;4933271;29;20557;-78
2022/06/14 00:38:54;;;;;;;18.58;8.32;;;;;;;9.80;78.71;102358.56;4947294;29;20541;-78
2022/06/14 00:41:39;;;;;;;19.15;8.45;;;;;;;9.81;78.47;102352.41;4932358;29;20031;-78
2022/06/14 00:44:12;;;;;;;24.15;8.68;;;;;;;9.77;79.62;102351.69;4933888;29;20032;-78
2022/06/14 00:46:51;;;;;;;19.27;9.00;;;;;;;9.72;79.39;102348.41;4950037;28;20034;-78
2022/06/14 00:49:29;;;;;;;21.58;9.40;;;;;;;9.67;79.69;102353.03;4937476;28;20034;-78
2022/06/14 00:52:05;;;;;;;20.80;9.02;;;;;;;9.55;80.30;102357.06;4952639;28;20036;-78
2022/06/14 00:54:36;;;;;;;18.63;8.45;;;;;;;9.58;80.47;102348.19;4949599;28;20058;-78
2022/06/14 00:57:08;;;;;;;20.13;8.55;;;;;;;9.57;80.04;102346.47;4936417;29;20090;-78
2022/06/14 00:59:53;;;;;;;18.67;8.55;;;;;;;9.63;80.13;102354.09;4951047;28;20516;-78
2022/06/14 01:02:24;;;;;;;18.92;8.70;;;;;;;9.52;80.27;102356.34;4953850;28;20505;-78
2022/06/14 01:04:50;;;;;;;19.35;8.85;;;;;;;9.49;80.65;102352.09;4949898;28;20038;-78
2022/06/14 01:07:27;;;;;;;23.30;9.10;;;;;;;9.49;81.08;102345.97;4985412;28;20031;-78
2022/06/14 01:10:09;;;;;;;18.20;8.88;;;;;;;9.45;81.00;102344.41;4969159;28;20051;-78
2022/06/14 01:12:40;;;;;;;16.08;7.97;;;;;;;9.42;80.49;102346.25;4956477;28;20549;-78
2022/06/14 01:15:16;;;;;;;19.27;9.23;;;;;;;9.36;80.84;102349.16;4949394;29;20035;-78
2022/06/14 01:17:51;;;;;;;16.80;8.00;;;;;;;9.43;80.89;102352.38;4953339;28;20022;-78
2022/06/14 01:20:21;;;;;;;17.55;8.32;;;;;;;9.32;80.81;102358.09;4958379;28;20155;-78
2022/06/14 01:22:48;;;;;;;18.02;8.20;;;;;;;9.29;80.99;102350.38;4962320;28;20031;-79
2022/06/14 01:25:14;;;;;;;15.65;7.65;;;;;;;9.27;80.98;102352.22;4942457;28;20032;-78
2022/06/14 01:27:41;;;;;;;17.42;7.28;;;;;;;9.18;81.28;102344.72;4930872;29;20034;-78
2022/06/14 01:30:10;;;;;;;15.40;7.80;;;;;;;9.11;81.63;102341.50;4930441;29;20090;-78
2022/06/14 01:32:42;;;;;;;18.50;7.43;;;;;;;9.15;81.60;102350.09;4945760;29;20038;-79
2022/06/14 01:35:13;;;;;;;15.68;7.28;;;;;;;9.09;81.49;102343.34;4931227;29;20395;-78
2022/06/14 01:37:39;;;;;;;14.15;7.28;;;;;;;9.06;81.73;102332.97;4932099;29;20094;-78
2022/06/14 01:40:06;;;;;;;15.27;6.55;;;;;;;9.00;81.81;102332.41;4947031;29;20044;-78
2022/06/14 01:42:47;;;;;;;13.10;6.25;;;;;;;9.02;82.11;102333.19;4946406;29;20108;-78
2022/06/14 01:45:21;;;;;;;13.25;6.63;;;;;;;9.07;81.79;102337.31;4944505;29;20055;-78
2022/06/14 01:47:56;;;;;;;14.65;7.28;;;;;;;9.02;82.01;102341.06;4965643;28;20054;-78
2022/06/14 01:53:35;;;;;;;16.15;6.78;;;;;;;8.99;81.22;102336.81;4950658;29;20050;-78
2022/06/14 01:56:13;;;;;;;13.77;6.70;;;;;;;8.99;81.22;102326.31;4963329;28;20633;-78
2022/06/14 01:58:52;;;;;;;14.93;6.82;;;;;;;8.92;81.71;102331.88;4949902;29;20331;-78
2022/06/14 02:01:27;;;;;;;14.05;7.57;;;;;;;8.83;81.53;102325.28;4946207;28;20023;-78
2022/06/14 02:04:38;;;;;;;13.95;6.70;;;;;;;8.91;81.02;102328.41;4945950;28;20040;-78
2022/06/14 02:07:09;;;;;;;13.52;6.28;;;;;;;8.81;81.36;102321.00;4968611;28;20023;-78
2022/06/14 02:10:01;;;;;;;13.52;6.50;;;;;;;8.86;81.16;102319.03;4969023;28;20142;-78
2022/06/14 02:12:49;;;;;;;12.70;5.97;;;;;;;8.84;81.02;102323.50;4954099;28;20133;-78
2022/06/14 02:15:23;;;;;;;12.77;6.47;;;;;;;8.69;81.74;102320.59;4942758;28;20090;-78
2022/06/14 02:18:00;;;;;;;11.43;6.03;;;;;;;8.62;81.50;102311.28;4953704;28;20442;-78
2022/06/14 02:20:33;;;;;;;12.30;6.30;;;;;;;8.58;82.06;102316.72;4968840;28;20031;-78
2022/06/14 02:23:06;;;;;;;12.93;6.15;;;;;;;8.56;82.00;102311.53;4968367;28;20038;-78
2022/06/14 02:25:42;;;;;;;12.40;6.40;;;;;;;8.55;82.08;102307.22;4956506;28;20031;-78
2022/06/14 02:28:14;;;;;;;13.18;6.00;;;;;;;8.54;82.04;102308.13;4948709;28;20162;-78
2022/06/14 02:30:54;;;;;;;15.77;6.23;;;;;;;8.55;81.92;102307.22;4942471;29;20032;-79
2022/06/14 02:33:25;;;;;;;10.43;5.55;;;;;;;8.48;82.24;102305.78;4934615;29;20314;-80
2022/06/14 02:36:06;;;;;;;11.10;5.85;;;;;;;8.48;82.58;102306.63;4933597;29;20055;-80
2022/06/14 02:38:50;;;;;;;13.20;6.20;;;;;;;8.47;82.42;102306.69;4934756;29;20031;-80
2022/06/14 02:41:26;;;;;;;11.50;5.43;;;;;;;8.46;81.96;102304.97;4959234;28;20393;-80
2022/06/14 02:44:22;;;;;;;8.27;4.85;;;;;;;8.48;81.77;102297.91;4953254;28;20043;-80
2022/06/14 02:47:10;;;;;;;10.25;5.57;;;;;;;8.44;81.90;102297.19;4947765;28;20086;-80
2022/06/14 02:49:46;;;;;;;13.32;5.40;;;;;;;8.40;82.60;102289.47;4944631;28;20050;-80
2022/06/14 02:52:21;;;;;;;10.82;5.70;;;;;;;8.36;82.80;102288.75;4952462;28;20442;-80
2022/06/14 02:55:02;;;;;;;11.98;5.93;;;;;;;8.35;82.94;102296.69;4967416;28;20027;-80
2022/06/14 02:57:30;;;;;;;11.70;5.57;;;;;;;8.31;82.93;102292.44;4953183;28;20035;-80
2022/06/14 03:00:05;;;;;;;8.95;5.00;;;;;;;8.32;82.61;102288.91;4950997;28;20028;-80
2022/06/14 03:02:43;;;;;;;11.13;5.25;;;;;;;8.29;82.77;102292.50;4967031;28;20088;-80
2022/06/14 03:05:20;;;;;;;11.38;5.28;;;;;;;8.29;82.57;102296.91;4971864;28;20398;-80
2022/06/14 03:08:17;;;;;;;12.40;5.72;;;;;;;8.32;81.72;102292.38;4952106;28;20027;-80
2022/06/14 03:11:08;;;;;;;10.98;5.35;;;;;;;8.29;82.04;102296.91;4938605;28;20054;-80
2022/06/14 03:13:41;;;;;;;9.63;5.93;;;;;;;8.16;82.69;102296.56;4964700;28;20019;-80
2022/06/14 03:16:06;;;;;;;11.90;5.82;;;;;;;8.18;82.54;102299.97;4950741;28;20614;-80
2022/06/14 03:18:37;;;;;;;9.75;5.75;;;;;;;8.20;83.04;102297.28;4962976;28;20027;-80
2022/06/14 03:21:06;;;;;;;11.82;7.05;;;;;;;8.17;82.63;102295.66;4970349;28;20453;-80
2022/06/14 03:23:46;;;;;;;15.82;9.45;;;;;;;8.18;83.50;102299.97;4951571;28;20405;-80
2022/06/14 03:26:36;;;;;;;15.00;9.30;;;;;;;8.02;83.77;102305.00;4951999;28;20046;-80
2022/06/14 03:29:13;;;;;;;15.10;8.35;;;;;;;8.07;83.21;102308.28;4952495;28;20625;-80
2022/06/14 03:31:48;;;;;;;10.48;6.55;;;;;;;8.01;83.63;102303.28;4947473;28;20019;-80
2022/06/14 03:34:23;;;;;;;11.25;6.47;;;;;;;7.99;83.82;102299.00;4967040;28;20031;-80
2022/06/14 03:36:51;;;;;;;9.70;6.03;;;;;;;7.99;83.88;102309.47;4951153;28;20235;-80
2022/06/14 03:39:22;;;;;;;13.18;6.82;;;;;;;7.99;83.96;102309.47;4951292;28;20035;-80
2022/06/14 03:41:52;;;;;;;15.27;7.00;;;;;;;7.95;84.12;102303.50;4950237;28;20051;-80
2022/06/14 03:44:20;;;;;;;14.00;7.60;;;;;;;7.99;84.02;102306.84;4950479;28;20126;-80
2022/06/14 03:47:17;;;;;;;13.40;7.35;;;;;;;8.04;83.96;102302.31;4966917;28;20027;-80
2022/06/14 03:49:47;;;;;;;14.02;7.43;;;;;;;7.96;84.02;102301.72;4949800;28;20027;-80
2022/06/14 03:52:43;;;;;;;12.30;7.55;;;;;;;8.02;83.83;102299.75;4950685;28;20110;-79
2022/06/14 03:55:24;;;;;;;13.40;7.47;;;;;;;8.01;84.04;102298.03;4950284;28;20035;-79
2022/06/14 03:58:05;;;;;;;17.30;7.65;;;;;;;8.02;84.07;102293.66;4950493;28;20057;-79
2022/06/14 04:00:35;;;;;;;13.38;7.68;;;;;;;8.10;84.26;102288.94;4951867;28;20039;-79
2022/06/14 04:03:27;;;;;;;12.57;7.53;;;;;;;8.50;83.44;102300.47;4952760;28;20409;-79
2022/06/14 04:06:09;;;;;;;12.40;7.78;;;;;;;8.86;82.07;102309.38;4980068;28;20026;-79
2022/06/14 04:08:57;;;;;;;17.00;7.70;;;;;;;9.41;79.32;102301.66;4969667;28;20444;-78
2022/06/14 04:11:36;;;;;;;15.10;7.22;;;;;;;10.08;77.35;102302.91;4958475;28;20059;-79
2022/06/14 04:14:08;;;;;;;13.43;7.10;;;;;;;11.07;73.72;102303.16;4947310;29;20090;-78
2022/06/14 04:17:02;;;;;;;13.77;6.40;;;;;;;12.05;71.86;102306.63;4951424;29;20389;-78
2022/06/14 04:19:39;;;;;;;12.00;6.63;;;;;;;12.50;67.53;102303.94;4944526;29;20048;-79
2022/06/14 04:22:09;;;;;;;13.68;6.70;;;;;;;12.90;65.85;102295.44;4932793;29;20034;-79
2022/06/14 04:24:59;;;;;;;10.85;6.00;;;;;;;12.70;67.54;102299.28;4931680;29;20072;-79
2022/06/14 04:27:46;;;;;;;14.40;6.65;;;;;;;12.35;67.73;102304.81;4931949;29;20036;-81
2022/06/14 04:30:19;;;;;;;13.55;7.15;;;;;;;11.75;68.66;102314.41;4932742;29;20034;-81
2022/06/14 04:33:09;;;;;;;13.07;6.85;;;;;;;11.55;70.54;102315.50;4934286;29;20545;-81
2022/06/14 04:35:48;;;;;;;11.23;6.18;;;;;;;11.03;71.49;102315.66;4950919;28;20066;-81
2022/06/14 04:38:24;;;;;;;11.27;6.22;;;;;;;10.80;73.07;102315.97;4950310;29;20105;-81
2022/06/14 04:40:57;;;;;;;11.13;7.10;;;;;;;10.43;74.34;102311.75;4950739;28;20033;-81
2022/06/14 04:43:31;;;;;;;11.15;6.63;;;;;;;10.33;75.24;102314.81;4949685;29;20035;-81
2022/06/14 04:46:10;;;;;;;10.68;6.85;;;;;;;10.25;76.67;102321.38;4950357;29;20051;-79
2022/06/14 04:48:54;;;;;;;13.50;7.22;;;;;;;10.19;76.85;102322.50;4950343;29;20389;-78
2022/06/14 04:51:30;;;;;;;15.18;7.60;;;;;;;10.04;78.67;102318.84;4966317;28;20037;-79
2022/06/14 04:54:02;;;;;;;11.45;7.15;;;;;;;9.86;79.45;102319.69;4951956;28;20121;-81
2022/06/14 04:56:33;;;;;;;14.07;8.00;;;;;;;9.78;80.28;102311.34;4951269;28;20027;-81
2022/06/14 04:59:13;;;;;;;10.68;7.70;;;;;;;9.74;80.70;102312.41;4951465;28;20030;-81
2022/06/14 05:01:56;;;;;;;16.05;7.85;;;;;;;9.73;81.50;102321.22;4950342;28;20023;-81
2022/06/14 05:04:36;;;;;;;15.68;7.78;;;;;;;9.74;82.41;102320.28;4956749;28;20030;-81
2022/06/14 05:07:18;;;;;;;16.55;8.27;;;;;;;9.75;83.73;102316.72;4986194;28;20394;-81
2022/06/14 05:09:52;;;;;;;13.40;8.25;;;;;;;9.76;83.75;102318.44;4960761;28;20043;-81
2022/06/14 05:12:25;;;;;;;12.63;7.95;;;;;;;9.76;84.88;102315.81;4950277;29;20392;-81
2022/06/14 05:15:13;;;;;;;16.45;8.93;;;;;;;9.81;83.77;102316.44;4949572;28;20032;-81
2022/06/14 05:17:53;;;;;;;19.38;8.85;;;;;;;9.86;84.37;102321.47;4945829;28;20031;-81
2022/06/14 05:20:27;;;;;;;15.48;8.80;;;;;;;9.89;85.02;102322.19;4932688;29;20028;-81
2022/06/14 05:22:58;;;;;;;21.67;10.27;;;;;;;9.98;84.85;102327.00;4945554;29;20051;-81
2022/06/14 05:25:46;;;;;;;18.10;8.90;;;;;;;10.04;85.03;102326.72;4929777;29;20070;-78
2022/06/14 05:28:18;;;;;;;16.48;9.45;;;;;;;10.15;84.48;102326.22;4931933;29;20027;-79
2022/06/14 05:30:49;;;;;;;19.02;10.10;;;;;;;10.20;85.03;102320.72;4945723;28;20389;-79
2022/06/14 05:33:26;;;;;;;21.88;9.75;;;;;;;10.33;84.73;102316.59;4949553;29;20031;-79
2022/06/14 05:36:04;;;;;;;21.92;10.30;;;;;;;10.42;85.47;102324.03;4950455;28;20042;-79
2022/06/14 05:38:33;;;;;;;19.65;10.02;;;;;;;10.66;84.96;102317.53;4947912;29;20110;-78
2022/06/14 05:41:12;;;;;;;21.67;8.52;;;;;;;10.87;83.89;102330.56;4945235;29;20023;-79
2022/06/14 05:43:48;;;;;;;20.17;7.25;;;;;;;11.06;83.18;102325.16;4947715;29;20089;-79
2022/06/14 05:46:38;;;;;;;15.63;7.00;;;;;;;11.24;81.86;102326.84;4948757;29;20133;-79
2022/06/14 05:49:13;;;;;;;17.27;6.80;;;;;;;11.42;80.36;102322.38;4943103;28;20051;-79
2022/06/14 05:51:46;;;;;;;15.50;7.70;;;;;;;11.51;80.91;102324.50;4961318;28;20442;-79
2022/06/14 05:54:36;;;;;;;17.05;7.25;;;;;;;11.61;79.94;102325.72;4948598;29;20047;-79
2022/06/14 05:57:13;;;;;;;17.48;6.40;;;;;;;11.70;79.05;102327.84;4963052;28;20027;-79
2022/06/14 06:00:02;;;;;;;16.92;5.70;;;;;;;11.78;77.50;102323.03;4946357;29;20031;-79
2022/06/14 06:02:35;;;;;;;12.85;5.75;;;;;;;11.93;76.72;102323.94;4963446;28;20035;-79
2022/06/14 06:05:05;;;;;;;16.80;6.38;;;;;;;11.96;78.60;102323.78;4966648;28;20608;-79
2022/06/14 06:07:39;;;;;;;19.67;6.38;;;;;;;12.07;78.68;102326.69;4954134;28;20034;-79
2022/06/14 06:10:14;;;;;;;15.05;5.80;;;;;;;12.14;75.15;102332.47;4951414;29;20035;-79
2022/06/14 06:12:55;;;;;;;13.25;5.88;;;;;;;12.29;75.25;102334.22;4951063;29;20019;-81
2022/06/14 06:15:42;;;;;;;14.88;5.47;;;;;;;12.38;75.02;102328.41;4951990;29;20473;-82
2022/06/14 06:18:18;;;;;;;13.77;5.40;;;;;;;12.50;75.41;102329.50;4952363;28;20389;-82
2022/06/14 06:21:16;;;;;;;11.50;5.32;;;;;;;12.59;74.68;102333.38;4948482;29;20529;-82
2022/06/14 06:23:50;;;;;;;11.55;5.35;;;;;;;12.67;73.12;102336.44;4966063;28;20158;-79
2022/06/14 06:26:20;;;;;;;14.90;5.93;;;;;;;12.74;72.96;102335.13;4952268;28;20023;-79
2022/06/14 06:28:54;;;;;;;9.55;4.50;;;;;;;12.82;70.10;102333.75;4952495;29;20019;-80
2022/06/14 06:31:30;;;;;;;10.93;4.82;;;;;;;12.92;71.69;102333.19;4966428;28;20027;-80
2022/06/14 06:33:58;;;;;;;13.68;4.68;;;;;;;12.99;69.98;102337.16;4949227;29;20102;-80
2022/06/14 06:36:38;;;;;;;11.05;4.70;;;;;;;13.05;71.91;102332.34;4953309;28;20074;-80
2022/06/14 06:39:12;;;;;;;13.18;4.50;;;;;;;13.13;70.10;102335.38;4952263;28;20035;-80
2022/06/14 06:44:38;;;;;;;8.32;3.63;;;;;;;13.32;68.07;102342.22;4948321;28;20035;-79
2022/06/14 06:47:10;;;;;;;15.38;4.38;;;;;;;13.38;66.96;102339.19;4952035;29;20035;-79
2022/06/14 06:49:56;;;;;;;10.63;4.03;;;;;;;13.49;68.18;102342.88;4953147;29;20037;-80
2022/06/14 06:52:45;;;;;;;11.65;4.10;;;;;;;13.54;68.07;102342.56;4953385;29;20030;-80
2022/06/14 06:55:17;;;;;;;15.75;4.90;;;;;;;13.57;66.06;102334.44;4952338;29;20117;-79
2022/06/14 06:57:46;;;;;;;13.73;5.03;;;;;;;13.71;66.15;102339.75;4952999;29;20061;-79
2022/06/14 07:00:17;;;;;;;10.45;4.75;;;;;;;13.80;65.57;102333.84;4953126;28;20074;-79
2022/06/14 07:02:49;;;;;;;12.80;4.70;;;;;;;13.97;65.39;102332.75;4909829;28;23103;-79
2022/06/14 07:05:16;;;;;;;10.20;3.83;;;;;;;14.14;63.80;102329.03;4946074;29;20582;-79
2022/06/14 07:07:48;;;;;;;10.77;4.35;;;;;;;14.37;63.12;102328.34;4952129;29;20406;-79
2022/06/14 07:10:17;;;;;;;13.48;4.75;;;;;;;14.57;61.65;102334.19;4923590;29;20056;-79
2022/06/14 07:13:03;;;;;;;12.15;3.67;;;;;;;14.72;57.52;102330.50;4931076;29;20043;-79
2022/06/14 07:15:38;;;;;;;7.88;3.22;;;;;;;15.04;57.23;102336.25;4951695;28;20031;-81
2022/06/14 07:18:12;;;;;;;8.35;3.05;;;;;;;15.47;57.17;102339.41;4954414;29;20110;-82
2022/06/14 07:20:50;;;;;;;10.00;4.28;;;;;;;15.75;57.66;102340.13;4953370;29;20114;-80
2022/06/14 07:23:36;;;;;;;7.15;3.38;;;;;;;16.03;56.33;102325.72;4953179;29;20027;-80
2022/06/14 07:26:11;;;;;;;6.70;2.92;;;;;;;16.40;53.13;102321.16;4931786;29;20032;-81
2022/06/14 07:28:40;;;;;;;9.85;3.00;;;;;;;16.53;51.58;102324.59;4932690;29;20040;-80
2022/06/14 07:31:10;;;;;;;9.48;2.60;;;;;;;16.84;49.11;102323.16;4897960;29;20031;-80
2022/06/14 07:33:37;;;;;;;8.45;2.75;;;;;;;17.09;50.80;102319.41;4925038;29;20028;-81
2022/06/14 07:36:23;;;;;;;7.32;2.20;;;;;;;17.00;49.37;102322.81;4919998;29;20112;-80
2022/06/14 07:38:55;;;;;;;6.90;2.10;;;;;;;17.05;49.49;102321.47;4936469;29;20392;-82
2022/06/14 07:41:34;;;;;;;4.50;2.03;;;;;;;17.26;47.67;102326.09;4937551;29;20039;-80
2022/06/14 07:44:18;;;;;;;7.47;2.90;;;;;;;17.04;49.08;102326.91;4934102;29;20055;-80
2022/06/14 07:47:12;;;;;;;5.90;2.53;;;;;;;17.23;49.07;102325.38;4933625;29;20023;-81
2022/06/14 07:49:47;;;;;;;7.22;2.40;;;;;;;17.53;48.71;102330.06;4940606;29;20058;-81
2022/06/14 07:52:42;;;;;;;7.07;2.80;;;;;;;17.66;48.03;102327.28;4940384;29;20038;-82
2022/06/14 07:55:18;;;;;;;7.82;2.67;;;;;;;17.80;47.10;102331.53;4950527;28;20025;-80
2022/06/14 07:57:47;;;;;;;7.10;2.25;;;;;;;18.12;46.74;102321.75;4944728;29;20426;-80
2022/06/14 08:03:24;;;;;;;8.75;2.65;;;;;;;18.70;47.03;102314.22;4948793;29;20042;-81
2022/06/14 08:05:52;;;;;;;5.15;2.40;;;;;;;18.46;45.91;102310.97;4953266;29;20115;-81
2022/06/14 08:08:23;;;;;;;5.82;2.65;;;;;;;18.39;46.46;102312.44;4936754;29;20046;-80
2022/06/14 08:10:55;;;;;;;5.75;2.40;;;;;;;18.44;48.70;102307.59;4949172;29;20321;-81
2022/06/14 08:13:27;;;;;;;6.63;2.60;;;;;;;18.72;45.00;102312.28;4917484;29;20498;-82
2022/06/14 08:15:58;;;;;;;4.95;2.15;;;;;;;18.91;46.03;102306.25;4933007;29;20488;-81
2022/06/14 08:18:38;;;;;;;6.10;1.90;;;;;;;18.89;45.53;102315.34;4943326;29;20033;-78
2022/06/14 08:21:27;;;;;;;9.15;2.33;;;;;;;18.86;47.01;102307.59;4951994;29;20027;-80
2022/06/14 08:24:03;;;;;;;4.60;1.98;;;;;;;18.77;45.56;102304.72;4958746;29;20031;-78
2022/06/14 08:26:37;;;;;;;4.57;1.70;;;;;;;18.72;44.17;102300.78;4956523;28;20097;-79
2022/06/14 08:29:25;;;;;;;7.28;2.30;;;;;;;18.68;44.88;102302.84;4937088;29;20481;-81
2022/06/14 08:31:54;;;;;;;3.35;1.80;;;;;;;18.77;44.27;102299.41;4935949;29;20126;-83
2022/06/14 08:34:29;;;;;;;5.85;1.80;;;;;;;18.73;44.75;102297.97;4937203;29;20028;-80
2022/06/14 08:37:11;;;;;;;5.63;2.00;;;;;;;18.84;45.47;102291.75;4936065;29;20044;-80
2022/06/14 08:39:43;;;;;;;8.02;1.95;;;;;;;18.81;43.88;102293.81;4918000;29;20402;-79
2022/06/14 08:42:11;;;;;;;4.93;1.75;;;;;;;19.08;45.12;102294.09;4948945;29;20027;-80
2022/06/14 08:44:43;;;;;;;5.07;1.70;;;;;;;19.11;44.69;102307.16;4932989;29;20027;-80
2022/06/14 08:47:39;;;;;;;4.37;1.67;;;;;;;19.29;45.39;102294.06;4932179;29;20019;-81
2022/06/14 08:50:31;;;;;;;4.20;1.67;;;;;;;19.07;44.10;102295.06;4932183;29;20364;-81
2022/06/14 08:53:21;;;;;;;8.45;2.10;;;;;;;19.19;44.89;102303.81;4915191;29;20130;-82
2022/06/14 08:56:14;;;;;;;5.80;2.00;;;;;;;19.18;45.16;102291.47;4931735;29;20023;-82
2022/06/14 08:59:18;;;;;;;6.45;2.17;;;;;;;19.47;43.27;102291.56;4931601;29;20662;-81
2022/06/14 09:01:55;;;;;;;5.28;1.80;;;;;;;19.60;43.98;102293.03;4872087;29;20595;-81
2022/06/14 09:04:39;;;;;;;6.30;2.28;;;;;;;19.80;44.73;102293.94;4873198;29;20107;-80
2022/06/14 09:07:40;;;;;;;4.70;2.10;;;;;;;19.92;44.37;102290.16;4857388;29;20150;-79
2022/06/14 09:10:14;;;;;;;8.35;2.70;;;;;;;20.06;42.44;102285.41;4857426;29;20056;-79
2022/06/14 09:12:58;;;;;;;5.30;2.20;;;;;;;20.00;43.72;102284.94;4886969;29;20047;-78
2022/06/14 09:15:38;;;;;;;5.00;2.25;;;;;;;19.87;43.42;102294.22;4914243;29;20063;-78
2022/06/14 09:18:12;;;;;;;6.68;2.58;;;;;;;20.00;44.17;102289.44;4939138;29;20482;-78
2022/06/14 09:20:56;;;;;;;4.45;2.10;;;;;;;19.97;43.72;102290.56;4930785;29;20024;-78
2022/06/14 09:23:30;;;;;;;7.03;2.85;;;;;;;20.23;43.31;102279.34;4931229;29;20500;-77
2022/06/14 09:26:26;;;;;;;5.93;2.60;;;;;;;20.33;43.25;102280.16;4931971;29;20110;-78
2022/06/14 09:29:32;;;;;;;5.72;2.30;;;;;;;20.54;43.84;102280.91;4945304;29;20038;-78
2022/06/14 09:32:10;;;;;;;5.70;2.75;;;;;;;20.49;42.74;102285.84;4912051;29;20079;-79
2022/06/14 09:34:35;;;;;;;5.20;2.92;;;;;;;20.41;41.08;102280.34;4912908;29;20024;-78
2022/06/14 09:37:23;;;;;;;6.30;2.53;;;;;;;20.47;41.39;102271.75;4919692;29;20047;-78
2022/06/14 09:40:17;;;;;;;6.60;2.83;;;;;;;20.34;42.87;102268.50;4915987;29;20027;-78
2022/06/14 09:43:08;;;;;;;8.23;2.55;;;;;;;20.46;43.35;102267.41;4930765;29;20031;-79
2022/06/14 09:45:52;;;;;;;6.93;2.40;;;;;;;20.43;42.42;102256.16;4931802;29;20019;-79
2022/06/14 09:48:18;;;;;;;6.38;2.97;;;;;;;20.43;42.22;102264.19;4915242;29;20034;-78
2022/06/14 09:50:55;;;;;;;7.28;2.88;;;;;;;20.37;42.63;102257.50;4945500;29;20028;-79
2022/06/14 09:53:36;;;;;;;9.02;3.00;;;;;;;20.46;42.85;102255.88;4947045;29;20123;-79
2022/06/14 09:56:25;;;;;;;7.05;3.00;;;;;;;20.31;41.96;102250.06;4947159;29;20030;-79
2022/06/14 09:59:06;;;;;;;6.70;2.40;;;;;;;20.90;43.89;102244.47;4944524;29;20070;-78
2022/06/14 10:01:44;;;;;;;6.90;2.92;;;;;;;20.91;40.87;102242.66;4913805;29;20612;-80
2022/06/14 10:04:25;;;;;;;7.43;2.65;;;;;;;20.74;41.41;102248.75;4917138;29;20027;-80
2022/06/14 10:07:21;;;;;;;6.57;2.65;;;;;;;20.77;41.91;102248.44;4949856;29;20485;-80
2022/06/14 10:10:05;;;;;;;8.23;2.67;;;;;;;21.05;42.21;102239.47;4923405;29;20059;-80
2022/06/14 10:13:06;;;;;;;6.22;2.60;;;;;;;20.85;42.02;102252.09;4930001;29;20032;-80
2022/06/14 10:15:41;;;;;;;5.47;2.58;;;;;;;20.72;42.24;102240.88;4930761;29;20023;-82
2022/06/14 10:18:30;;;;;;;5.72;2.60;;;;;;;20.95;42.61;102244.03;4938212;29;20024;-82
2022/06/14 10:21:03;;;;;;;6.65;2.80;;;;;;;21.01;42.29;102235.41;4950083;29;20103;-80
2022/06/14 10:23:31;;;;;;;;;;;;;;;21.40;43.25;102240.59;4950688;29;20024;-80
2022/06/14 10:29:20;;;;;;;7.35;3.13;;;;;;;21.36;42.89;102233.88;4950583;29;20054;-80
2022/06/14 10:32:13;;;;;;;5.95;2.80;;;;;;;21.51;41.72;102213.59;4948229;29;20019;-80
2022/06/14 10:34:49;;;;;;;;;;;;;;;21.83;42.85;102210.41;4928334;29;20509;-81
2022/06/14 10:37:30;;;;;;;10.23;3.28;;;;;;;21.46;40.69;102213.22;4930483;29;19922;-80
2022/06/14 10:40:07;;;;;;;6.47;3.10;;;;;;;21.42;41.15;102209.16;4930942;29;20028;-80
2022/06/14 10:42:55;;;;;;;7.28;2.60;;;;;;;21.27;41.18;102207.00;4930724;29;20111;-80
2022/06/14 10:45:39;;;;;;;7.68;2.97;;;;;;;21.46;41.69;102199.81;4921687;29;20102;-81
2022/06/14 10:48:36;;;;;;;6.60;2.65;;;;;;;21.62;41.79;102188.44;4913757;29;20470;-80
2022/06/14 10:51:26;;;;;;;5.93;2.85;;;;;;;21.67;39.73;102189.66;4917825;29;20115;-80
2022/06/14 10:54:08;;;;;;;7.07;3.55;;;;;;;21.60;40.07;102191.25;4925961;29;20047;-80
2022/06/14 10:57:05;;;;;;;8.17;2.90;;;;;;;21.70;41.67;102191.19;4915555;29;20028;-81
2022/06/14 10:59:43;;;;;;;6.05;3.22;;;;;;;21.98;40.85;102187.41;4915124;29;20645;-79
2022/06/14 11:02:36;;;;;;;8.18;3.83;;;;;;;22.14;39.71;102186.75;4915529;29;20021;-80
2022/06/14 11:05:09;;;;;;;;;;;;;;;22.20;40.59;102178.06;4935220;29;20488;-79
2022/06/14 11:07:56;;;;;;;7.45;3.38;;;;;;;21.98;40.87;102171.31;4952652;29;19910;-79
2022/06/14 11:10:46;;;;;;;9.07;3.20;;;;;;;22.23;40.26;102180.44;4931891;29;20039;-79
2022/06/14 11:13:26;;;;;;;7.72;2.92;;;;;;;22.50;39.30;102176.75;4916667;29;20118;-82
2022/06/14 11:16:16;;;;;;;6.03;2.95;;;;;;;22.63;38.07;102173.63;4915539;29;20035;-81
2022/06/14 11:19:02;;;;;;;7.07;2.90;;;;;;;22.68;38.84;102176.69;4944891;29;20386;-81
2022/06/14 11:22:00;;;;;;;7.65;2.92;;;;;;;22.27;38.49;102179.13;4935297;29;20470;-80
2022/06/14 11:24:39;;;;;;;6.65;3.10;;;;;;;22.31;39.53;102169.75;4950908;29;20066;-81
2022/06/14 11:27:20;;;;;;;7.28;2.97;;;;;;;22.30;38.42;102165.38;4939102;29;20024;-80
2022/06/14 11:30:00;;;;;;;7.82;2.97;;;;;;;22.54;39.63;102159.34;4912228;29;20078;-80
2022/06/14 11:32:54;;;;;;;5.13;2.70;;;;;;;22.58;39.12;102157.19;4929294;29;20434;-80
2022/06/14 11:35:38;;;;;;;8.68;2.65;;;;;;;22.71;39.42;102160.25;4914063;29;20028;-81
2022/06/14 11:38:19;;;;;;;7.00;2.45;;;;;;;22.74;37.34;102154.56;4914813;29;20028;-80
2022/06/14 11:40:51;;;;;;;4.82;2.40;;;;;;;22.87;36.95;102144.28;4928438;29;20032;-80
2022/06/14 11:43:55;;;;;;;7.80;3.00;;;;;;;22.90;37.55;102141.25;4912680;29;20024;-82
2022/06/14 11:46:26;;;;;;;8.20;2.75;;;;;;;22.81;38.34;102139.53;4918590;29;20035;-80
2022/06/14 11:48:55;;;;;;;6.20;2.92;;;;;;;22.89;36.96;102136.88;4928731;29;20028;-80
2022/06/14 11:51:30;;;;;;;5.80;2.55;;;;;;;23.04;37.88;102132.56;4914632;29;20486;-80
2022/06/14 11:54:16;;;;;;;7.75;2.60;;;;;;;23.17;37.96;102131.25;4914938;29;20072;-80
2022/06/14 11:56:56;;;;;;;7.45;2.45;;;;;;;23.21;38.31;102127.22;4928455;29;20402;-80
2022/06/14 11:59:39;;;;;;;8.85;2.40;;;;;;;23.29;38.91;102124.56;4914933;29;20047;-80
2022/06/14 12:02:29;;;;;;;9.25;2.80;;;;;;;23.14;36.65;102127.88;4918902;29;20103;-80
2022/06/14 12:05:18;;;;;;;7.85;2.80;;;;;;;22.81;36.12;102134.16;4932661;29;20035;-79
2022/06/14 12:08:00;;;;;;;6.57;2.60;;;;;;;22.86;36.63;102129.16;4935338;29;20477;-80
2022/06/14 12:10:40;;;;;;;5.13;2.50;;;;;;;22.87;35.49;102130.84;4952089;29;20043;-81
2022/06/14 12:13:25;;;;;;;5.28;2.38;;;;;;;22.99;35.90;102120.63;4935600;29;20031;-81
2022/06/14 12:16:01;;;;;;;6.18;2.40;;;;;;;23.10;36.50;102125.69;4930348;29;20545;-81
2022/06/14 12:18:35;;;;;;;7.80;2.70;;;;;;;23.06;35.25;102110.91;4935834;29;20591;-79
2022/06/14 12:21:23;;;;;;;5.63;2.60;;;;;;;23.45;35.90;102113.84;4931612;29;20088;-80
2022/06/14 12:23:56;;;;;;;6.53;2.50;;;;;;;23.45;36.35;102117.38;4927657;29;20150;-78
2022/06/14 12:26:35;;;;;;;5.82;2.30;;;;;;;23.38;36.26;102116.34;4925103;29;20031;-78